Airfield :
LOGIN :

Register | Disclaimer

   EN    FR    IT 

 










Legend :    VFR   Marginal VFR   IFR   Intensive IFR   Very Intensive IFR
Visi :
Ceiling :
>= 8 km
>= 3000ft
5 to 8 km
1000 to 3000 ft
1500m to 5 km
500 to 1000 ft
800 to 1500m
200 to 500 ft
< 800m
< 200 ft
Symbols :   Thunderstorms  Fog  Heavy snow  Heavy precipitations  Wind > 20 kt
SIGMETs :     Misc.  Thunderstorms  Icing  Turbulence  Mountain Waves  Volcanic Ashes







- Airport Elevation : 353 ft
- IATA code : ZAG


LDZA - Zagreb Pleso

CURRENT METAR :
  • 210700Z 03007KT 8000 OVC027 00/M02 Q1021 NOSIG

EXPIRED METARs :
  • 210630Z 04005KT 010V080 8000 OVC025 00/M02 Q1021 NOSIG
  • 210600Z 00000KT 8000 OVC025 M00/M02 Q1021 NOSIG
  • 210530Z 00000KT 9999 OVC025 M01/M02 Q1021 NOSIG
  • 210500Z 00000KT 9999 OVC025 M00/M02 Q1020 NOSIG
  • 210430Z 00000KT 9999 OVC026 M00/M02 Q1020 NOSIG

TAF TAF LDZA
Valid from the 21 at 06:00 until the 22 at 06:00 UTC


210525Z 2106/2206 VRB02KT 9999 BKN025 TX02/2113Z TNM03/2205Z
BECMG 2106/2108 05008KT
PROB30
TEMPO 2120/2206 4000 -SN
ATIS : +385 1 6-259-214
No reported NOTAMs for that airfield.
1 SIGMET reported for the Zagreb FIR (LDZO) :
 
Embedded thunderstorms
LDZO SIGMET 2 VALID 210600/210830 LDZA
LDZO ZAGREB FIR EMBD TS OBS WI N4301 E01515 - N4320 E01626 - N4227 E01758 - N4202 E01651 - N4301 E01515 TOP FL300 STNR NC=



MET'MAP, your aeronautical weather chart ! - Copyright ORBIFLY December 2007 - Disclaimer

ORBIFLY MET'MAP TEAM :

Programming & Development : Alexandra Zaïnal
Concept & Development : Baudouin d'Aumeries
Co-Development & Prog : Marc-Olivier Méhu
Technical & hardware support : Manuel Goepfert

Contact : metmap@orbifly.com




SOURCES & CREDITS :

   NOAA